ADDS TAF Board (Experimental) INFO Settings
IDs: Format: Expanded Condensed

KIAH - Houston/Bush Intl, TX, US

Issued at 2054 UTC 29 Aug 2015
Updated at: 2055 UTC 29 Aug 2015
Time2053Z 29/21Z 29/22Z 29/23Z 30/00Z 30/01Z 30/02Z 30/03Z 30/04Z 30/05Z 30/06Z 30/07Z 30/08Z 30/09Z
Type OBS PRVL PRVL PRVL PRVL PRVL PRVL PRVL PRVL PRVL PRVL PRVL PRVL PRVL
VIS 10 >6 >6 >6 >6 >6 >6 >6 >6 >6 >6 >6 >6 >6
CIG -- -- -- -- -- -- -- -- -- -- -- -- -- --
Cover SCT FEW FEW FEW FEW FEW SCT SCT SCT SCT SCT SCT SCT SCT
FltCat VFR VFR VFR VFR VFR VFR VFR VFR VFR VFR VFR VFR VFR VFR
WX -- -- -- -- -- -- -- -- -- -- -- -- -- --
WDir 130 150 150 150 150 150 VRB VRB VRB VRB VRB VRB VRB VRB
WSpd 6 6 6 6 6 6 3 3 3 3 3 3 3 3
WGst -- -- -- -- -- -- -- -- -- -- -- -- -- --
R08/26
XWnd -4 -5 -5 -5 -5 -5 VRB VRB VRB VRB VRB VRB VRB VRB
HWnd 5 3 3 3 3 3 VRB VRB VRB VRB VRB VRB VRB VRB
R09/27
XWnd -4 -5 -5 -5 -5 -5 VRB VRB VRB VRB VRB VRB VRB VRB
HWnd 5 3 3 3 3 3 VRB VRB VRB VRB VRB VRB VRB VRB
R15/33
XWnd 2 0 0 0 0 0 VRB VRB VRB VRB VRB VRB VRB VRB
HWnd 6 6 6 6 6 6 VRB VRB VRB VRB VRB VRB VRB VRB

NOTE: TEMPO conditions in [brackets]. Keep in mind TEMPO conditions might be better (lower impact) than prevailing conditions.

Raw TAF
KIAH 292054Z 2921/3024 15006KT P6SM FEW060
  FM300200 VRB03KT P6SM SCT250
  FM301500 VRB05KT P6SM SCT030
  FM301800 15007KT P6SM SCT050


Raw METAR
KIAH 292053Z 13006KT 10SM FEW055 SCT250 32/17 A2999 RMK AO2 SLP153 T03220172 58019
KIAH 291953Z 17004KT 10SM FEW055 SCT250 32/18 A3001 RMK AO2 SLP161 T03220183
KIAH 291853Z VRB06KT 10SM FEW055 SCT250 32/18 A3003 RMK AO2 SLP167 T03170178
KIAH 291753Z 09004KT 10SM FEW050 SCT250 31/17 A3004 RMK AO2 SLP172 T03060172 10311 20211 58005

METAR Board
Radar Display
Forecast Discussion

TAF Board Legend

Potential Impact
Threat None Slight Moderate High
Visibility (sm) ≥5.1 5.1>X≥3 3>X≥1 <1
Ceiling (100 ft) ≥30.1 30.1>X≥10 10>X≥5 <5
Wind Speed (kt) <10 10≤X<20 20≤X<30 ≥30
Wind Gust (kt) <15 15≤X<25 25≤X<35 ≥35
Weather No Wx Reported VCTS,-TS,-FZRA,SN TS,FZRA +TS,+FZRA,+SN